sensor_id;sensor_type;location;lat;lon;timestamp;P1;durP1;ratioP1;P2;durP2;ratioP2
8044;SDS011;4065;48.754;9.982;2023-03-16T00:00:22;10.35;;;9.00;;
8044;SDS011;4065;48.754;9.982;2023-03-16T00:03:44;10.43;;;9.02;;
8044;SDS011;4065;48.754;9.982;2023-03-16T00:07:07;11.25;;;9.80;;
8044;SDS011;4065;48.754;9.982;2023-03-16T00:10:30;10.00;;;9.00;;
8044;SDS011;4065;48.754;9.982;2023-03-16T00:13:52;10.55;;;9.50;;
8044;SDS011;4065;48.754;9.982;2023-03-16T00:17:16;10.57;;;8.80;;
8044;SDS011;4065;48.754;9.982;2023-03-16T00:20:39;15.88;;;10.88;;
8044;SDS011;4065;48.754;9.982;2023-03-16T00:24:01;11.90;;;9.65;;
8044;SDS011;4065;48.754;9.982;2023-03-16T00:27:24;11.68;;;9.82;;
8044;SDS011;4065;48.754;9.982;2023-03-16T00:30:46;9.48;;;8.57;;
8044;SDS011;4065;48.754;9.982;2023-03-16T00:34:09;11.82;;;10.63;;
8044;SDS011;4065;48.754;9.982;2023-03-16T00:37:32;11.35;;;9.95;;
8044;SDS011;4065;48.754;9.982;2023-03-16T00:40:54;11.93;;;9.98;;
8044;SDS011;4065;48.754;9.982;2023-03-16T00:44:16;11.73;;;9.55;;
8044;SDS011;4065;48.754;9.982;2023-03-16T00:47:38;12.23;;;10.63;;
8044;SDS011;4065;48.754;9.982;2023-03-16T00:51:03;17.23;;;11.82;;
8044;SDS011;4065;48.754;9.982;2023-03-16T00:54:26;13.80;;;11.63;;
8044;SDS011;4065;48.754;9.982;2023-03-16T00:57:48;13.57;;;10.98;;
8044;SDS011;4065;48.754;9.982;2023-03-16T01:01:11;15.00;;;10.57;;
8044;SDS011;4065;48.754;9.982;2023-03-16T01:04:34;15.13;;;12.20;;
8044;SDS011;4065;48.754;9.982;2023-03-16T01:07:57;14.82;;;11.45;;
8044;SDS011;4065;48.754;9.982;2023-03-16T01:11:40;11.90;;;10.23;;
8044;SDS011;4065;48.754;9.982;2023-03-16T01:15:04;14.85;;;11.15;;
8044;SDS011;4065;48.754;9.982;2023-03-16T01:18:26;14.02;;;9.68;;
8044;SDS011;4065;48.754;9.982;2023-03-16T01:21:49;14.60;;;11.52;;
8044;SDS011;4065;48.754;9.982;2023-03-16T01:25:13;10.00;;;8.93;;
8044;SDS011;4065;48.754;9.982;2023-03-16T01:28:35;15.38;;;10.85;;
8044;SDS011;4065;48.754;9.982;2023-03-16T01:31:58;13.95;;;10.25;;
8044;SDS011;4065;48.754;9.982;2023-03-16T01:35:20;11.40;;;10.15;;
8044;SDS011;4065;48.754;9.982;2023-03-16T01:38:42;13.02;;;10.65;;
8044;SDS011;4065;48.754;9.982;2023-03-16T01:42:06;13.48;;;9.70;;
8044;SDS011;4065;48.754;9.982;2023-03-16T01:49:34;14.80;;;10.32;;
8044;SDS011;4065;48.754;9.982;2023-03-16T01:52:57;20.33;;;11.60;;
8044;SDS011;4065;48.754;9.982;2023-03-16T01:56:20;16.65;;;10.93;;
8044;SDS011;4065;48.754;9.982;2023-03-16T01:59:45;11.35;;;8.55;;
8044;SDS011;4065;48.754;9.982;2023-03-16T02:03:10;11.98;;;9.55;;
8044;SDS011;4065;48.754;9.982;2023-03-16T02:06:34;10.07;;;8.82;;
8044;SDS011;4065;48.754;9.982;2023-03-16T02:09:56;11.20;;;9.25;;
8044;SDS011;4065;48.754;9.982;2023-03-16T02:13:19;12.52;;;10.13;;
8044;SDS011;4065;48.754;9.982;2023-03-16T02:16:42;12.63;;;9.88;;
8044;SDS011;4065;48.754;9.982;2023-03-16T02:20:07;12.30;;;9.40;;
8044;SDS011;4065;48.754;9.982;2023-03-16T02:23:35;13.25;;;10.95;;
8044;SDS011;4065;48.754;9.982;2023-03-16T02:26:58;17.00;;;12.45;;
8044;SDS011;4065;48.754;9.982;2023-03-16T02:30:25;11.95;;;9.68;;
8044;SDS011;4065;48.754;9.982;2023-03-16T02:33:47;16.38;;;12.20;;
8044;SDS011;4065;48.754;9.982;2023-03-16T02:37:10;13.00;;;9.23;;
8044;SDS011;4065;48.754;9.982;2023-03-16T02:40:33;14.85;;;11.20;;
8044;SDS011;4065;48.754;9.982;2023-03-16T02:43:56;13.38;;;10.25;;
8044;SDS011;4065;48.754;9.982;2023-03-16T02:47:23;25.42;;;14.40;;
8044;SDS011;4065;48.754;9.982;2023-03-16T02:50:50;28.33;;;12.68;;
8044;SDS011;4065;48.754;9.982;2023-03-16T02:54:13;27.60;;;15.02;;
8044;SDS011;4065;48.754;9.982;2023-03-16T02:57:35;51.47;;;12.25;;
8044;SDS011;4065;48.754;9.982;2023-03-16T03:00:57;41.15;;;13.63;;
8044;SDS011;4065;48.754;9.982;2023-03-16T03:04:20;71.65;;;16.90;;
8044;SDS011;4065;48.754;9.982;2023-03-16T03:07:43;161.40;;;23.48;;
8044;SDS011;4065;48.754;9.982;2023-03-16T03:11:05;163.10;;;24.00;;
8044;SDS011;4065;48.754;9.982;2023-03-16T03:14:27;110.38;;;24.42;;
8044;SDS011;4065;48.754;9.982;2023-03-16T03:17:49;58.15;;;18.88;;
8044;SDS011;4065;48.754;9.982;2023-03-16T03:21:13;64.35;;;22.33;;
8044;SDS011;4065;48.754;9.982;2023-03-16T03:24:35;37.58;;;16.85;;
8044;SDS011;4065;48.754;9.982;2023-03-16T03:27:57;40.40;;;20.15;;
8044;SDS011;4065;48.754;9.982;2023-03-16T03:31:20;32.33;;;19.05;;
8044;SDS011;4065;48.754;9.982;2023-03-16T03:34:43;48.60;;;24.00;;
8044;SDS011;4065;48.754;9.982;2023-03-16T03:38:06;67.13;;;24.25;;
8044;SDS011;4065;48.754;9.982;2023-03-16T03:41:28;68.22;;;24.23;;
8044;SDS011;4065;48.754;9.982;2023-03-16T03:44:50;52.65;;;23.30;;
8044;SDS011;4065;48.754;9.982;2023-03-16T03:48:13;35.88;;;18.23;;
8044;SDS011;4065;48.754;9.982;2023-03-16T03:51:34;47.17;;;23.50;;
8044;SDS011;4065;48.754;9.982;2023-03-16T03:54:58;40.72;;;21.80;;
8044;SDS011;4065;48.754;9.982;2023-03-16T03:58:20;39.17;;;20.17;;
8044;SDS011;4065;48.754;9.982;2023-03-16T04:01:41;31.02;;;18.80;;
8044;SDS011;4065;48.754;9.982;2023-03-16T04:05:04;37.75;;;20.17;;
8044;SDS011;4065;48.754;9.982;2023-03-16T04:08:26;31.70;;;18.40;;
8044;SDS011;4065;48.754;9.982;2023-03-16T04:11:49;41.13;;;21.63;;
8044;SDS011;4065;48.754;9.982;2023-03-16T04:15:11;35.95;;;22.38;;
8044;SDS011;4065;48.754;9.982;2023-03-16T04:18:33;29.17;;;18.77;;
8044;SDS011;4065;48.754;9.982;2023-03-16T04:21:57;39.33;;;21.33;;
8044;SDS011;4065;48.754;9.982;2023-03-16T04:25:19;38.88;;;20.98;;
8044;SDS011;4065;48.754;9.982;2023-03-16T04:28:42;50.00;;;22.02;;
8044;SDS011;4065;48.754;9.982;2023-03-16T04:32:04;45.40;;;23.13;;
8044;SDS011;4065;48.754;9.982;2023-03-16T04:35:26;34.28;;;19.60;;
8044;SDS011;4065;48.754;9.982;2023-03-16T04:38:48;40.20;;;21.98;;
8044;SDS011;4065;48.754;9.982;2023-03-16T04:42:10;47.38;;;24.33;;
8044;SDS011;4065;48.754;9.982;2023-03-16T04:45:34;32.30;;;17.95;;
8044;SDS011;4065;48.754;9.982;2023-03-16T04:48:56;33.97;;;21.70;;
8044;SDS011;4065;48.754;9.982;2023-03-16T04:52:18;41.70;;;22.15;;
8044;SDS011;4065;48.754;9.982;2023-03-16T04:55:43;34.35;;;22.15;;
8044;SDS011;4065;48.754;9.982;2023-03-16T04:59:05;39.60;;;22.70;;
8044;SDS011;4065;48.754;9.982;2023-03-16T05:02:28;38.40;;;22.80;;
8044;SDS011;4065;48.754;9.982;2023-03-16T05:05:50;28.73;;;18.23;;
8044;SDS011;4065;48.754;9.982;2023-03-16T05:09:12;39.08;;;23.67;;
8044;SDS011;4065;48.754;9.982;2023-03-16T05:12:33;37.80;;;23.83;;
8044;SDS011;4065;48.754;9.982;2023-03-16T05:15:55;38.78;;;22.67;;
8044;SDS011;4065;48.754;9.982;2023-03-16T05:19:19;41.42;;;25.08;;
8044;SDS011;4065;48.754;9.982;2023-03-16T05:22:41;40.00;;;22.70;;
8044;SDS011;4065;48.754;9.982;2023-03-16T05:26:04;42.60;;;23.98;;
8044;SDS011;4065;48.754;9.982;2023-03-16T05:29:26;45.35;;;25.48;;
8044;SDS011;4065;48.754;9.982;2023-03-16T05:32:51;40.75;;;23.13;;
8044;SDS011;4065;48.754;9.982;2023-03-16T05:36:18;42.40;;;24.88;;
8044;SDS011;4065;48.754;9.982;2023-03-16T05:39:40;48.40;;;26.92;;
8044;SDS011;4065;48.754;9.982;2023-03-16T05:43:02;45.00;;;24.73;;
8044;SDS011;4065;48.754;9.982;2023-03-16T05:46:24;41.17;;;24.70;;
8044;SDS011;4065;48.754;9.982;2023-03-16T05:49:46;54.72;;;26.85;;
8044;SDS011;4065;48.754;9.982;2023-03-16T05:53:11;43.17;;;21.33;;
8044;SDS011;4065;48.754;9.982;2023-03-16T05:56:33;48.40;;;25.98;;
8044;SDS011;4065;48.754;9.982;2023-03-16T05:59:55;48.13;;;24.95;;
8044;SDS011;4065;48.754;9.982;2023-03-16T06:03:17;44.85;;;23.85;;
8044;SDS011;4065;48.754;9.982;2023-03-16T06:06:39;31.65;;;19.70;;
8044;SDS011;4065;48.754;9.982;2023-03-16T06:10:02;44.45;;;23.55;;
8044;SDS011;4065;48.754;9.982;2023-03-16T06:13:24;38.65;;;22.25;;
8044;SDS011;4065;48.754;9.982;2023-03-16T06:16:46;38.88;;;23.52;;
8044;SDS011;4065;48.754;9.982;2023-03-16T06:20:11;50.17;;;26.08;;
8044;SDS011;4065;48.754;9.982;2023-03-16T06:23:34;37.10;;;22.98;;
8044;SDS011;4065;48.754;9.982;2023-03-16T06:26:57;40.20;;;21.95;;
8044;SDS011;4065;48.754;9.982;2023-03-16T06:30:19;36.35;;;20.40;;
8044;SDS011;4065;48.754;9.982;2023-03-16T06:33:41;37.65;;;22.85;;
8044;SDS011;4065;48.754;9.982;2023-03-16T06:37:03;45.00;;;23.92;;
8044;SDS011;4065;48.754;9.982;2023-03-16T06:40:27;44.90;;;22.92;;
8044;SDS011;4065;48.754;9.982;2023-03-16T06:43:51;30.40;;;18.35;;
8044;SDS011;4065;48.754;9.982;2023-03-16T06:47:15;36.60;;;23.08;;
8044;SDS011;4065;48.754;9.982;2023-03-16T06:50:40;32.15;;;20.95;;
8044;SDS011;4065;48.754;9.982;2023-03-16T06:54:04;39.00;;;22.00;;
8044;SDS011;4065;48.754;9.982;2023-03-16T06:57:26;34.22;;;21.35;;
8044;SDS011;4065;48.754;9.982;2023-03-16T07:00:49;36.00;;;21.80;;
8044;SDS011;4065;48.754;9.982;2023-03-16T07:04:13;35.38;;;22.40;;
8044;SDS011;4065;48.754;9.982;2023-03-16T07:07:35;42.03;;;24.23;;
8044;SDS011;4065;48.754;9.982;2023-03-16T07:10:57;38.17;;;22.85;;
8044;SDS011;4065;48.754;9.982;2023-03-16T07:14:19;31.77;;;21.70;;
8044;SDS011;4065;48.754;9.982;2023-03-16T07:17:44;32.13;;;21.30;;
8044;SDS011;4065;48.754;9.982;2023-03-16T07:21:05;29.70;;;20.90;;
8044;SDS011;4065;48.754;9.982;2023-03-16T07:24:27;29.55;;;20.20;;
8044;SDS011;4065;48.754;9.982;2023-03-16T07:27:50;28.67;;;18.95;;
8044;SDS011;4065;48.754;9.982;2023-03-16T07:31:12;27.85;;;20.25;;
8044;SDS011;4065;48.754;9.982;2023-03-16T07:34:35;27.30;;;18.08;;
8044;SDS011;4065;48.754;9.982;2023-03-16T07:37:59;27.20;;;17.77;;
8044;SDS011;4065;48.754;9.982;2023-03-16T07:41:21;22.67;;;16.98;;
8044;SDS011;4065;48.754;9.982;2023-03-16T07:44:44;25.77;;;17.58;;
8044;SDS011;4065;48.754;9.982;2023-03-16T07:48:06;28.02;;;18.80;;
8044;SDS011;4065;48.754;9.982;2023-03-16T07:51:30;22.17;;;16.60;;
8044;SDS011;4065;48.754;9.982;2023-03-16T07:54:52;23.13;;;17.90;;
8044;SDS011;4065;48.754;9.982;2023-03-16T07:58:14;27.33;;;17.42;;
8044;SDS011;4065;48.754;9.982;2023-03-16T08:01:37;24.90;;;17.38;;
8044;SDS011;4065;48.754;9.982;2023-03-16T08:04:59;24.58;;;16.85;;
8044;SDS011;4065;48.754;9.982;2023-03-16T08:08:22;25.83;;;17.42;;
8044;SDS011;4065;48.754;9.982;2023-03-16T08:11:44;23.13;;;18.15;;
8044;SDS011;4065;48.754;9.982;2023-03-16T08:15:07;21.95;;;15.50;;
8044;SDS011;4065;48.754;9.982;2023-03-16T08:18:34;23.13;;;16.02;;
8044;SDS011;4065;48.754;9.982;2023-03-16T08:21:56;21.13;;;15.35;;
8044;SDS011;4065;48.754;9.982;2023-03-16T08:25:21;19.08;;;14.68;;
8044;SDS011;4065;48.754;9.982;2023-03-16T08:28:44;18.30;;;14.27;;
8044;SDS011;4065;48.754;9.982;2023-03-16T08:32:06;21.27;;;15.80;;
8044;SDS011;4065;48.754;9.982;2023-03-16T08:35:28;22.08;;;16.25;;
8044;SDS011;4065;48.754;9.982;2023-03-16T08:38:51;21.15;;;14.15;;
8044;SDS011;4065;48.754;9.982;2023-03-16T08:42:15;19.00;;;13.98;;
8044;SDS011;4065;48.754;9.982;2023-03-16T08:45:39;19.40;;;13.95;;
8044;SDS011;4065;48.754;9.982;2023-03-16T08:49:02;18.63;;;13.55;;
8044;SDS011;4065;48.754;9.982;2023-03-16T08:52:24;16.05;;;13.25;;
8044;SDS011;4065;48.754;9.982;2023-03-16T08:55:47;18.90;;;14.80;;
8044;SDS011;4065;48.754;9.982;2023-03-16T08:59:10;18.77;;;13.88;;
8044;SDS011;4065;48.754;9.982;2023-03-16T09:02:34;15.85;;;12.35;;
8044;SDS011;4065;48.754;9.982;2023-03-16T09:05:59;16.20;;;13.18;;
8044;SDS011;4065;48.754;9.982;2023-03-16T09:09:21;16.90;;;12.80;;
8044;SDS011;4065;48.754;9.982;2023-03-16T09:12:44;18.55;;;13.48;;
8044;SDS011;4065;48.754;9.982;2023-03-16T09:16:11;15.43;;;12.63;;
8044;SDS011;4065;48.754;9.982;2023-03-16T09:19:35;16.15;;;12.38;;
8044;SDS011;4065;48.754;9.982;2023-03-16T09:22:57;13.27;;;11.35;;
8044;SDS011;4065;48.754;9.982;2023-03-16T09:26:19;15.07;;;11.77;;
8044;SDS011;4065;48.754;9.982;2023-03-16T09:29:41;15.98;;;12.27;;
8044;SDS011;4065;48.754;9.982;2023-03-16T09:33:06;13.55;;;11.52;;
8044;SDS011;4065;48.754;9.982;2023-03-16T09:36:27;14.98;;;11.70;;
8044;SDS011;4065;48.754;9.982;2023-03-16T09:39:50;14.57;;;12.10;;
8044;SDS011;4065;48.754;9.982;2023-03-16T09:43:15;13.27;;;11.40;;
8044;SDS011;4065;48.754;9.982;2023-03-16T09:46:44;15.43;;;11.23;;
8044;SDS011;4065;48.754;9.982;2023-03-16T09:50:12;12.98;;;10.57;;
8044;SDS011;4065;48.754;9.982;2023-03-16T09:53:41;13.55;;;10.38;;
8044;SDS011;4065;48.754;9.982;2023-03-16T09:57:04;14.30;;;10.48;;
8044;SDS011;4065;48.754;9.982;2023-03-16T10:00:33;15.40;;;11.95;;
8044;SDS011;4065;48.754;9.982;2023-03-16T10:04:01;15.27;;;11.23;;
8044;SDS011;4065;48.754;9.982;2023-03-16T10:07:35;13.63;;;11.48;;
8044;SDS011;4065;48.754;9.982;2023-03-16T10:11:23;15.77;;;11.45;;
8044;SDS011;4065;48.754;9.982;2023-03-16T10:14:48;10.65;;;9.05;;
8044;SDS011;4065;48.754;9.982;2023-03-16T10:18:14;11.38;;;10.07;;
8044;SDS011;4065;48.754;9.982;2023-03-16T10:21:39;12.60;;;9.55;;
8044;SDS011;4065;48.754;9.982;2023-03-16T10:25:07;14.25;;;9.82;;
8044;SDS011;4065;48.754;9.982;2023-03-16T10:28:37;10.30;;;8.73;;
8044;SDS011;4065;48.754;9.982;2023-03-16T10:32:00;11.32;;;8.65;;
8044;SDS011;4065;48.754;9.982;2023-03-16T10:35:29;12.75;;;9.02;;
8044;SDS011;4065;48.754;9.982;2023-03-16T10:38:59;12.15;;;10.02;;
8044;SDS011;4065;48.754;9.982;2023-03-16T10:42:25;11.20;;;9.85;;
8044;SDS011;4065;48.754;9.982;2023-03-16T10:45:49;11.65;;;9.50;;
8044;SDS011;4065;48.754;9.982;2023-03-16T10:49:21;10.05;;;8.32;;
8044;SDS011;4065;48.754;9.982;2023-03-16T10:52:46;11.35;;;8.85;;
8044;SDS011;4065;48.754;9.982;2023-03-16T10:56:09;13.93;;;9.88;;
8044;SDS011;4065;48.754;9.982;2023-03-16T10:59:34;8.20;;;7.40;;
8044;SDS011;4065;48.754;9.982;2023-03-16T11:03:00;8.45;;;7.43;;
8044;SDS011;4065;48.754;9.982;2023-03-16T11:06:45;9.60;;;7.38;;
8044;SDS011;4065;48.754;9.982;2023-03-16T11:10:11;9.85;;;7.85;;
8044;SDS011;4065;48.754;9.982;2023-03-16T11:13:35;8.80;;;6.90;;
8044;SDS011;4065;48.754;9.982;2023-03-16T11:17:01;8.68;;;6.90;;
8044;SDS011;4065;48.754;9.982;2023-03-16T11:20:25;7.07;;;5.85;;
8044;SDS011;4065;48.754;9.982;2023-03-16T11:23:50;9.05;;;7.40;;
8044;SDS011;4065;48.754;9.982;2023-03-16T11:27:19;8.55;;;7.10;;
8044;SDS011;4065;48.754;9.982;2023-03-16T11:30:45;6.90;;;6.20;;
8044;SDS011;4065;48.754;9.982;2023-03-16T11:34:14;7.97;;;6.07;;
8044;SDS011;4065;48.754;9.982;2023-03-16T11:37:40;7.93;;;6.43;;
8044;SDS011;4065;48.754;9.982;2023-03-16T11:41:12;9.15;;;6.80;;
8044;SDS011;4065;48.754;9.982;2023-03-16T11:44:54;8.90;;;7.00;;
8044;SDS011;4065;48.754;9.982;2023-03-16T11:48:21;9.18;;;6.45;;
8044;SDS011;4065;48.754;9.982;2023-03-16T11:51:54;8.77;;;7.00;;
8044;SDS011;4065;48.754;9.982;2023-03-16T11:55:23;8.75;;;7.78;;
8044;SDS011;4065;48.754;9.982;2023-03-16T11:58:52;10.63;;;8.48;;
8044;SDS011;4065;48.754;9.982;2023-03-16T12:02:30;10.43;;;7.80;;
8044;SDS011;4065;48.754;9.982;2023-03-16T12:05:59;10.40;;;8.90;;
8044;SDS011;4065;48.754;9.982;2023-03-16T12:09:39;11.13;;;8.18;;
8044;SDS011;4065;48.754;9.982;2023-03-16T12:13:16;8.40;;;7.03;;
8044;SDS011;4065;48.754;9.982;2023-03-16T12:16:51;10.80;;;8.93;;
8044;SDS011;4065;48.754;9.982;2023-03-16T12:20:17;7.72;;;6.93;;
8044;SDS011;4065;48.754;9.982;2023-03-16T12:23:48;8.80;;;7.90;;
8044;SDS011;4065;48.754;9.982;2023-03-16T12:27:15;9.30;;;8.18;;
8044;SDS011;4065;48.754;9.982;2023-03-16T12:30:40;10.82;;;9.05;;
8044;SDS011;4065;48.754;9.982;2023-03-16T12:34:07;9.60;;;8.38;;
8044;SDS011;4065;48.754;9.982;2023-03-16T12:37:36;10.00;;;9.00;;
8044;SDS011;4065;48.754;9.982;2023-03-16T12:41:05;9.35;;;7.97;;
8044;SDS011;4065;48.754;9.982;2023-03-16T12:44:38;8.85;;;6.97;;
8044;SDS011;4065;48.754;9.982;2023-03-16T12:48:08;11.35;;;9.07;;
8044;SDS011;4065;48.754;9.982;2023-03-16T12:51:35;9.05;;;6.80;;
8044;SDS011;4065;48.754;9.982;2023-03-16T12:55:05;9.30;;;7.93;;
8044;SDS011;4065;48.754;9.982;2023-03-16T12:58:29;7.35;;;6.30;;
8044;SDS011;4065;48.754;9.982;2023-03-16T13:01:55;9.70;;;7.80;;
8044;SDS011;4065;48.754;9.982;2023-03-16T13:05:26;7.22;;;6.53;;
8044;SDS011;4065;48.754;9.982;2023-03-16T13:08:52;9.55;;;8.55;;
8044;SDS011;4065;48.754;9.982;2023-03-16T13:12:21;13.35;;;9.35;;
8044;SDS011;4065;48.754;9.982;2023-03-16T13:15:45;6.97;;;6.28;;
8044;SDS011;4065;48.754;9.982;2023-03-16T13:19:27;9.27;;;7.93;;
8044;SDS011;4065;48.754;9.982;2023-03-16T13:23:06;9.90;;;8.27;;
8044;SDS011;4065;48.754;9.982;2023-03-16T13:26:35;7.97;;;6.57;;
8044;SDS011;4065;48.754;9.982;2023-03-16T13:30:11;9.43;;;8.00;;
8044;SDS011;4065;48.754;9.982;2023-03-16T13:33:37;9.73;;;7.72;;
8044;SDS011;4065;48.754;9.982;2023-03-16T13:37:11;9.00;;;7.60;;
8044;SDS011;4065;48.754;9.982;2023-03-16T13:40:37;8.75;;;7.25;;
8044;SDS011;4065;48.754;9.982;2023-03-16T13:44:11;7.07;;;5.80;;
8044;SDS011;4065;48.754;9.982;2023-03-16T13:47:34;10.43;;;7.25;;
8044;SDS011;4065;48.754;9.982;2023-03-16T13:50:56;10.20;;;7.70;;
8044;SDS011;4065;48.754;9.982;2023-03-16T13:54:24;8.07;;;6.88;;
8044;SDS011;4065;48.754;9.982;2023-03-16T13:57:47;8.18;;;7.35;;
8044;SDS011;4065;48.754;9.982;2023-03-16T14:01:14;7.72;;;6.97;;
8044;SDS011;4065;48.754;9.982;2023-03-16T14:04:47;7.97;;;6.30;;
8044;SDS011;4065;48.754;9.982;2023-03-16T14:08:13;7.63;;;6.03;;
8044;SDS011;4065;48.754;9.982;2023-03-16T14:11:38;8.60;;;6.45;;
8044;SDS011;4065;48.754;9.982;2023-03-16T14:15:02;8.60;;;6.63;;
8044;SDS011;4065;48.754;9.982;2023-03-16T14:18:30;8.57;;;6.32;;
8044;SDS011;4065;48.754;9.982;2023-03-16T14:21:55;8.48;;;5.85;;
8044;SDS011;4065;48.754;9.982;2023-03-16T14:25:18;8.52;;;7.30;;
8044;SDS011;4065;48.754;9.982;2023-03-16T14:28:53;9.13;;;6.70;;
8044;SDS011;4065;48.754;9.982;2023-03-16T14:32:19;9.95;;;7.30;;
8044;SDS011;4065;48.754;9.982;2023-03-16T14:35:47;9.73;;;7.13;;
8044;SDS011;4065;48.754;9.982;2023-03-16T14:39:15;8.73;;;7.25;;
8044;SDS011;4065;48.754;9.982;2023-03-16T14:42:40;7.78;;;6.65;;
8044;SDS011;4065;48.754;9.982;2023-03-16T14:46:05;9.45;;;7.63;;
8044;SDS011;4065;48.754;9.982;2023-03-16T14:49:28;8.95;;;7.18;;
8044;SDS011;4065;48.754;9.982;2023-03-16T14:52:52;7.55;;;6.72;;
8044;SDS011;4065;48.754;9.982;2023-03-16T14:56:17;8.05;;;6.07;;
8044;SDS011;4065;48.754;9.982;2023-03-16T14:59:39;8.07;;;7.22;;
8044;SDS011;4065;48.754;9.982;2023-03-16T15:03:03;9.45;;;7.00;;
8044;SDS011;4065;48.754;9.982;2023-03-16T15:06:27;8.02;;;7.20;;
8044;SDS011;4065;48.754;9.982;2023-03-16T15:09:50;8.35;;;7.32;;
8044;SDS011;4065;48.754;9.982;2023-03-16T15:13:17;8.70;;;6.88;;
8044;SDS011;4065;48.754;9.982;2023-03-16T15:16:54;9.25;;;7.13;;
8044;SDS011;4065;48.754;9.982;2023-03-16T15:20:20;10.13;;;7.38;;
8044;SDS011;4065;48.754;9.982;2023-03-16T15:23:43;9.73;;;6.63;;
8044;SDS011;4065;48.754;9.982;2023-03-16T15:27:09;9.15;;;7.22;;
8044;SDS011;4065;48.754;9.982;2023-03-16T15:30:39;7.70;;;6.90;;
8044;SDS011;4065;48.754;9.982;2023-03-16T15:34:01;7.65;;;6.93;;
8044;SDS011;4065;48.754;9.982;2023-03-16T15:37:26;9.05;;;6.60;;
8044;SDS011;4065;48.754;9.982;2023-03-16T15:40:52;8.52;;;5.82;;
8044;SDS011;4065;48.754;9.982;2023-03-16T15:44:14;8.57;;;6.45;;
8044;SDS011;4065;48.754;9.982;2023-03-16T15:47:39;6.18;;;5.65;;
8044;SDS011;4065;48.754;9.982;2023-03-16T15:51:03;9.50;;;6.80;;
8044;SDS011;4065;48.754;9.982;2023-03-16T15:54:29;9.13;;;6.07;;
8044;SDS011;4065;48.754;9.982;2023-03-16T15:57:54;6.57;;;5.82;;
8044;SDS011;4065;48.754;9.982;2023-03-16T16:01:19;6.72;;;6.07;;
8044;SDS011;4065;48.754;9.982;2023-03-16T16:04:42;6.88;;;6.05;;
8044;SDS011;4065;48.754;9.982;2023-03-16T16:08:09;7.53;;;6.30;;
8044;SDS011;4065;48.754;9.982;2023-03-16T16:11:32;9.45;;;6.05;;
8044;SDS011;4065;48.754;9.982;2023-03-16T16:14:59;6.97;;;6.28;;
8044;SDS011;4065;48.754;9.982;2023-03-16T16:18:28;10.57;;;7.15;;
8044;SDS011;4065;48.754;9.982;2023-03-16T16:21:51;6.80;;;6.00;;
8044;SDS011;4065;48.754;9.982;2023-03-16T16:25:17;9.82;;;6.95;;
8044;SDS011;4065;48.754;9.982;2023-03-16T16:28:41;7.10;;;6.18;;
8044;SDS011;4065;48.754;9.982;2023-03-16T16:32:09;6.47;;;5.88;;
8044;SDS011;4065;48.754;9.982;2023-03-16T16:35:42;7.40;;;6.20;;
8044;SDS011;4065;48.754;9.982;2023-03-16T16:39:04;6.78;;;5.78;;
8044;SDS011;4065;48.754;9.982;2023-03-16T16:42:26;8.13;;;5.72;;
8044;SDS011;4065;48.754;9.982;2023-03-16T16:45:50;7.03;;;6.32;;
8044;SDS011;4065;48.754;9.982;2023-03-16T16:49:13;7.55;;;5.85;;
8044;SDS011;4065;48.754;9.982;2023-03-16T16:52:38;7.60;;;6.18;;
8044;SDS011;4065;48.754;9.982;2023-03-16T16:56:00;7.72;;;5.93;;
8044;SDS011;4065;48.754;9.982;2023-03-16T16:59:23;8.02;;;6.10;;
8044;SDS011;4065;48.754;9.982;2023-03-16T17:02:48;6.68;;;5.90;;
8044;SDS011;4065;48.754;9.982;2023-03-16T17:06:13;7.28;;;6.30;;
8044;SDS011;4065;48.754;9.982;2023-03-16T17:09:36;7.50;;;6.65;;
8044;SDS011;4065;48.754;9.982;2023-03-16T17:12:58;9.65;;;7.50;;
8044;SDS011;4065;48.754;9.982;2023-03-16T17:16:20;7.90;;;7.10;;
8044;SDS011;4065;48.754;9.982;2023-03-16T17:19:48;7.70;;;6.90;;
8044;SDS011;4065;48.754;9.982;2023-03-16T17:23:20;8.00;;;6.78;;
8044;SDS011;4065;48.754;9.982;2023-03-16T17:26:46;8.45;;;7.13;;
8044;SDS011;4065;48.754;9.982;2023-03-16T17:30:14;9.55;;;6.95;;
8044;SDS011;4065;48.754;9.982;2023-03-16T17:33:44;8.25;;;6.88;;
8044;SDS011;4065;48.754;9.982;2023-03-16T17:37:09;7.82;;;7.03;;
8044;SDS011;4065;48.754;9.982;2023-03-16T17:40:33;9.43;;;7.93;;
8044;SDS011;4065;48.754;9.982;2023-03-16T17:43:56;9.20;;;6.93;;
8044;SDS011;4065;48.754;9.982;2023-03-16T17:47:20;7.90;;;7.10;;
8044;SDS011;4065;48.754;9.982;2023-03-16T17:50:43;10.10;;;7.85;;
8044;SDS011;4065;48.754;9.982;2023-03-16T17:54:07;9.02;;;8.13;;
8044;SDS011;4065;48.754;9.982;2023-03-16T17:57:29;10.55;;;8.18;;
8044;SDS011;4065;48.754;9.982;2023-03-16T18:00:53;13.43;;;9.68;;
8044;SDS011;4065;48.754;9.982;2023-03-16T18:04:16;10.82;;;8.48;;
8044;SDS011;4065;48.754;9.982;2023-03-16T18:07:38;8.60;;;7.70;;
8044;SDS011;4065;48.754;9.982;2023-03-16T18:11:02;8.23;;;7.40;;
8044;SDS011;4065;48.754;9.982;2023-03-16T18:14:30;8.35;;;7.32;;
8044;SDS011;4065;48.754;9.982;2023-03-16T18:17:55;8.55;;;7.20;;
8044;SDS011;4065;48.754;9.982;2023-03-16T18:21:18;8.57;;;7.45;;
8044;SDS011;4065;48.754;9.982;2023-03-16T18:24:41;11.90;;;7.40;;
8044;SDS011;4065;48.754;9.982;2023-03-16T18:28:04;8.35;;;7.47;;
8044;SDS011;4065;48.754;9.982;2023-03-16T18:31:27;9.70;;;7.47;;
8044;SDS011;4065;48.754;9.982;2023-03-16T18:34:50;8.40;;;7.50;;
8044;SDS011;4065;48.754;9.982;2023-03-16T18:38:16;9.25;;;7.10;;
8044;SDS011;4065;48.754;9.982;2023-03-16T18:41:39;8.00;;;6.80;;
8044;SDS011;4065;48.754;9.982;2023-03-16T18:45:03;8.52;;;7.65;;
8044;SDS011;4065;48.754;9.982;2023-03-16T18:48:26;10.35;;;7.97;;
8044;SDS011;4065;48.754;9.982;2023-03-16T18:51:50;10.25;;;8.50;;
8044;SDS011;4065;48.754;9.982;2023-03-16T18:55:14;9.57;;;8.07;;
8044;SDS011;4065;48.754;9.982;2023-03-16T18:58:37;9.93;;;8.65;;
8044;SDS011;4065;48.754;9.982;2023-03-16T19:02:03;10.65;;;9.05;;
8044;SDS011;4065;48.754;9.982;2023-03-16T19:05:27;9.07;;;8.00;;
8044;SDS011;4065;48.754;9.982;2023-03-16T19:08:53;9.43;;;8.43;;
8044;SDS011;4065;48.754;9.982;2023-03-16T19:12:15;9.95;;;8.88;;
8044;SDS011;4065;48.754;9.982;2023-03-16T19:15:38;11.60;;;9.43;;
8044;SDS011;4065;48.754;9.982;2023-03-16T19:19:01;11.57;;;9.57;;
8044;SDS011;4065;48.754;9.982;2023-03-16T19:22:23;15.52;;;9.98;;
8044;SDS011;4065;48.754;9.982;2023-03-16T19:25:45;11.50;;;9.60;;
8044;SDS011;4065;48.754;9.982;2023-03-16T19:29:08;12.65;;;10.10;;
8044;SDS011;4065;48.754;9.982;2023-03-16T19:32:31;12.98;;;10.60;;
8044;SDS011;4065;48.754;9.982;2023-03-16T19:35:56;16.58;;;10.43;;
8044;SDS011;4065;48.754;9.982;2023-03-16T19:39:18;12.27;;;10.50;;
8044;SDS011;4065;48.754;9.982;2023-03-16T19:42:41;14.55;;;11.10;;
8044;SDS011;4065;48.754;9.982;2023-03-16T19:46:03;10.40;;;9.23;;
8044;SDS011;4065;48.754;9.982;2023-03-16T19:49:25;15.07;;;10.85;;
8044;SDS011;4065;48.754;9.982;2023-03-16T19:52:50;15.52;;;11.88;;
8044;SDS011;4065;48.754;9.982;2023-03-16T19:56:12;11.80;;;10.05;;
8044;SDS011;4065;48.754;9.982;2023-03-16T19:59:35;17.58;;;11.82;;
8044;SDS011;4065;48.754;9.982;2023-03-16T20:02:58;15.80;;;10.90;;
8044;SDS011;4065;48.754;9.982;2023-03-16T20:06:20;14.73;;;11.23;;
8044;SDS011;4065;48.754;9.982;2023-03-16T20:09:44;13.90;;;11.05;;
8044;SDS011;4065;48.754;9.982;2023-03-16T20:13:08;13.77;;;11.23;;
8044;SDS011;4065;48.754;9.982;2023-03-16T20:16:31;12.75;;;10.98;;
8044;SDS011;4065;48.754;9.982;2023-03-16T20:19:54;12.05;;;10.00;;
8044;SDS011;4065;48.754;9.982;2023-03-16T20:23:18;14.90;;;11.57;;
8044;SDS011;4065;48.754;9.982;2023-03-16T20:26:44;15.63;;;11.52;;
8044;SDS011;4065;48.754;9.982;2023-03-16T20:30:12;16.05;;;12.18;;
8044;SDS011;4065;48.754;9.982;2023-03-16T20:33:35;17.45;;;12.23;;
8044;SDS011;4065;48.754;9.982;2023-03-16T20:36:58;15.35;;;10.85;;
8044;SDS011;4065;48.754;9.982;2023-03-16T20:40:21;13.57;;;10.10;;
8044;SDS011;4065;48.754;9.982;2023-03-16T20:43:44;13.57;;;10.48;;
8044;SDS011;4065;48.754;9.982;2023-03-16T20:47:07;11.98;;;9.95;;
8044;SDS011;4065;48.754;9.982;2023-03-16T20:50:36;13.98;;;10.63;;
8044;SDS011;4065;48.754;9.982;2023-03-16T20:53:58;12.20;;;10.57;;